createdAt,value
2023-04-05T00:00:14.736Z,3.60
2023-04-05T00:01:14.664Z,3.66
2023-04-05T00:02:14.652Z,3.68
2023-04-05T00:03:14.871Z,3.65
2023-04-05T00:04:14.756Z,3.55
2023-04-05T00:05:14.684Z,3.55
2023-04-05T00:06:14.601Z,3.50
2023-04-05T00:07:14.608Z,3.48
2023-04-05T00:08:14.581Z,3.57
2023-04-05T00:09:14.599Z,3.50
2023-04-05T00:10:14.599Z,3.58
2023-04-05T00:11:14.600Z,3.52
2023-04-05T00:12:14.570Z,3.50
2023-04-05T00:13:14.568Z,3.57
2023-04-05T00:14:14.554Z,3.50
2023-04-05T00:15:14.523Z,3.57
2023-04-05T00:16:14.592Z,3.52
2023-04-05T00:17:14.521Z,3.54
2023-04-05T00:18:14.476Z,3.50
2023-04-05T00:19:14.505Z,3.51
2023-04-05T00:20:14.455Z,3.51
2023-04-05T00:21:14.483Z,3.62
2023-04-05T00:22:14.460Z,3.55
2023-04-05T00:23:14.437Z,3.66
2023-04-05T00:24:14.444Z,3.65
2023-04-05T00:25:14.403Z,3.62
2023-04-05T00:26:14.396Z,3.58
2023-04-05T00:27:14.384Z,3.58
2023-04-05T00:28:14.403Z,3.62
2023-04-05T00:29:14.395Z,3.57
2023-04-05T00:30:14.343Z,3.60
2023-04-05T00:31:14.364Z,3.57
2023-04-05T00:32:14.373Z,3.55
2023-04-05T00:33:14.324Z,3.62
2023-04-05T00:34:14.341Z,3.60
2023-04-05T00:35:14.317Z,3.65
2023-04-05T00:36:14.337Z,3.65
2023-04-05T00:37:14.296Z,3.69
2023-04-05T00:38:14.269Z,3.65
2023-04-05T00:39:14.261Z,3.58
2023-04-05T00:40:14.292Z,3.61
2023-04-05T00:41:14.250Z,3.54
2023-04-05T00:42:14.236Z,3.60
2023-04-05T00:43:14.211Z,3.66
2023-04-05T00:44:14.213Z,3.52
2023-04-05T00:45:14.213Z,3.60
2023-04-05T00:46:14.275Z,3.57
2023-04-05T00:47:14.220Z,3.52
2023-04-05T00:48:14.152Z,3.54
2023-04-05T00:49:14.149Z,3.50
2023-04-05T00:50:14.160Z,3.57
2023-04-05T00:51:14.131Z,3.51
2023-04-05T00:52:14.155Z,3.54
2023-04-05T00:53:14.160Z,3.51
2023-04-05T00:54:14.136Z,3.52
2023-04-05T00:55:14.091Z,3.48
2023-04-05T00:56:14.107Z,3.43
2023-04-05T00:57:14.078Z,3.47
2023-04-05T00:58:14.061Z,3.52
2023-04-05T00:59:14.181Z,3.52
2023-04-05T01:00:14.045Z,3.55
2023-04-05T01:01:14.147Z,3.62
2023-04-05T01:02:14.019Z,3.54
2023-04-05T01:03:14.003Z,3.50
2023-04-05T01:04:14.063Z,3.60
2023-04-05T01:05:14.022Z,3.55
2023-04-05T01:06:15.473Z,3.52
2023-04-05T01:07:13.953Z,3.52
2023-04-05T01:08:13.945Z,3.60
2023-04-05T01:09:13.946Z,3.52
2023-04-05T01:10:13.927Z,3.60
2023-04-05T01:11:13.932Z,3.60
2023-04-05T01:12:13.918Z,3.70
2023-04-05T01:13:13.896Z,3.68
2023-04-05T01:14:13.898Z,3.65
2023-04-05T01:15:13.888Z,3.62
2023-04-05T01:16:13.873Z,3.75
2023-04-05T01:17:13.893Z,3.79
2023-04-05T01:18:13.846Z,3.72
2023-04-05T01:19:13.832Z,3.86
2023-04-05T01:20:13.836Z,3.94
2023-04-05T01:21:13.809Z,3.97
2023-04-05T01:22:13.808Z,3.98
2023-04-05T01:23:13.846Z,3.97
2023-04-05T01:24:13.764Z,4.05
2023-04-05T01:25:13.807Z,3.94
2023-04-05T01:26:13.745Z,4.05
2023-04-05T01:27:13.740Z,4.05
2023-04-05T01:28:13.739Z,3.96
2023-04-05T01:29:13.745Z,4.00
2023-04-05T01:30:13.723Z,3.90
2023-04-05T01:31:13.714Z,3.94
2023-04-05T01:32:13.693Z,3.91
2023-04-05T01:33:13.677Z,3.90
2023-04-05T01:34:13.662Z,3.91
2023-04-05T01:35:13.698Z,3.78
2023-04-05T01:36:13.646Z,3.91
2023-04-05T01:37:13.634Z,3.86
2023-04-05T01:38:13.628Z,3.91
2023-04-05T01:39:13.631Z,3.84
2023-04-05T01:40:13.600Z,3.93
2023-04-05T01:41:13.610Z,3.76
2023-04-05T01:42:13.595Z,3.79
2023-04-05T01:43:13.566Z,3.76
2023-04-05T01:44:13.557Z,3.94
2023-04-05T01:45:13.542Z,3.88
2023-04-05T01:46:13.603Z,3.88
2023-04-05T01:47:13.548Z,3.87
2023-04-05T01:48:13.503Z,3.80
2023-04-05T01:49:13.500Z,3.78
2023-04-05T01:50:13.519Z,3.72
2023-04-05T01:51:13.479Z,3.61
2023-04-05T01:52:13.466Z,3.70
2023-04-05T01:53:13.476Z,3.75
2023-04-05T01:54:13.460Z,3.73
2023-04-05T01:55:13.433Z,3.75
2023-04-05T01:56:13.419Z,3.73
2023-04-05T01:57:13.470Z,3.76
2023-04-05T01:58:13.440Z,3.70
2023-04-05T01:59:13.484Z,3.60
2023-04-05T02:00:13.392Z,3.68
2023-04-05T02:01:13.435Z,3.60
2023-04-05T02:02:13.379Z,3.62
2023-04-05T02:03:13.538Z,3.61
2023-04-05T02:04:13.353Z,3.65
2023-04-05T02:05:13.327Z,3.61
2023-04-05T02:06:13.316Z,3.58
2023-04-05T02:07:13.314Z,3.58
2023-04-05T02:08:13.300Z,3.61
2023-04-05T02:09:13.330Z,3.61
2023-04-05T02:10:13.276Z,3.60
2023-04-05T02:11:13.262Z,3.65
2023-04-05T02:12:13.251Z,3.70
2023-04-05T02:13:13.296Z,3.68
2023-04-05T02:14:13.245Z,3.73
2023-04-05T02:15:13.294Z,3.68
2023-04-05T02:16:13.265Z,3.68
2023-04-05T02:17:13.201Z,3.65
2023-04-05T02:18:13.196Z,3.69
2023-04-05T02:19:13.201Z,3.72
2023-04-05T02:20:13.170Z,3.68
2023-04-05T02:21:13.197Z,3.61
2023-04-05T02:22:13.149Z,3.58
2023-04-05T02:23:13.160Z,3.57
2023-04-05T02:24:13.267Z,3.68
2023-04-05T02:25:13.115Z,3.57
2023-04-05T02:26:13.098Z,3.65
2023-04-05T02:27:13.177Z,3.58
2023-04-05T02:28:13.089Z,3.57
2023-04-05T02:29:13.091Z,3.54
2023-04-05T02:30:13.060Z,3.51
2023-04-05T02:31:13.068Z,3.54
2023-04-05T02:32:13.056Z,3.50
2023-04-05T02:33:13.081Z,3.47
2023-04-05T02:34:13.031Z,3.43
2023-04-05T02:35:13.010Z,3.33
2023-04-05T02:36:13.018Z,3.36
2023-04-05T02:37:12.983Z,3.39
2023-04-05T02:38:12.989Z,3.35
2023-04-05T02:39:13.006Z,3.35
2023-04-05T02:40:12.946Z,3.31
2023-04-05T02:41:12.943Z,3.29
2023-04-05T02:42:12.952Z,3.23
2023-04-05T02:43:12.937Z,3.24
2023-04-05T02:44:12.914Z,3.15
2023-04-05T02:45:12.946Z,3.23
2023-04-05T02:46:12.905Z,3.23
2023-04-05T02:47:12.874Z,3.26
2023-04-05T02:48:12.879Z,3.29
2023-04-05T02:49:12.875Z,3.21
2023-04-05T02:50:12.862Z,3.21
2023-04-05T02:51:12.884Z,3.21
2023-04-05T02:52:12.819Z,3.20
2023-04-05T02:53:12.812Z,3.15
2023-04-05T02:54:12.828Z,3.21
2023-04-05T02:55:12.861Z,3.13
2023-04-05T02:56:12.792Z,3.14
2023-04-05T02:57:12.790Z,3.18
2023-04-05T02:58:12.768Z,3.13
2023-04-05T02:59:12.819Z,3.11
2023-04-05T03:00:12.751Z,2.95
2023-04-05T03:01:12.839Z,3.06
2023-04-05T03:02:12.706Z,3.11
2023-04-05T03:03:12.832Z,2.99
2023-04-05T03:04:12.689Z,3.00
2023-04-05T03:05:12.686Z,2.93
2023-04-05T03:06:12.682Z,2.97
2023-04-05T03:07:12.681Z,2.99
2023-04-05T03:08:12.715Z,2.96
2023-04-05T03:09:12.641Z,3.00
2023-04-05T03:10:12.660Z,2.85
2023-04-05T03:11:12.630Z,2.87
2023-04-05T03:12:12.610Z,2.84
2023-04-05T03:13:12.608Z,2.92
2023-04-05T03:14:12.660Z,2.89
2023-04-05T03:15:12.567Z,2.85
2023-04-05T03:16:12.634Z,2.82
2023-04-05T03:17:12.599Z,2.82
2023-04-05T03:18:12.572Z,2.78
2023-04-05T03:19:12.541Z,2.78
2023-04-05T03:20:12.523Z,2.69
2023-04-05T03:21:12.554Z,2.72
2023-04-05T03:22:12.524Z,2.74
2023-04-05T03:23:12.503Z,2.69
2023-04-05T03:24:12.470Z,2.67
2023-04-05T03:25:12.478Z,2.64
2023-04-05T03:26:12.451Z,2.61
2023-04-05T03:27:12.464Z,2.54
2023-04-05T03:28:12.517Z,2.66
2023-04-05T03:29:12.418Z,2.56
2023-04-05T03:30:12.408Z,2.49
2023-04-05T03:31:12.437Z,2.53
2023-04-05T03:32:12.421Z,2.48
2023-04-05T03:33:12.411Z,2.49
2023-04-05T03:34:12.370Z,2.45
2023-04-05T03:35:12.354Z,2.45
2023-04-05T03:36:12.367Z,2.38
2023-04-05T03:37:12.324Z,2.42
2023-04-05T03:38:12.462Z,2.36
2023-04-05T03:39:12.303Z,2.42
2023-04-05T03:40:12.299Z,2.42
2023-04-05T03:41:12.284Z,2.35
2023-04-05T03:42:12.286Z,2.39
2023-04-05T03:43:12.284Z,2.36
2023-04-05T03:44:12.299Z,2.39
2023-04-05T03:45:12.256Z,2.38
2023-04-05T03:46:12.332Z,2.36
2023-04-05T03:47:12.226Z,2.34
2023-04-05T03:48:12.222Z,2.35
2023-04-05T03:49:12.234Z,2.35
2023-04-05T03:50:12.263Z,2.25
2023-04-05T03:51:12.202Z,2.23
2023-04-05T03:52:12.210Z,2.31
2023-04-05T03:53:12.188Z,2.27
2023-04-05T03:54:12.187Z,2.28
2023-04-05T03:55:12.178Z,2.27
2023-04-05T03:56:12.180Z,2.30
2023-04-05T03:57:12.121Z,2.24
2023-04-05T03:58:12.113Z,2.21
2023-04-05T03:59:12.113Z,2.21
2023-04-05T04:00:12.096Z,2.24
2023-04-05T04:01:12.066Z,2.20
2023-04-05T04:02:12.127Z,2.16
2023-04-05T04:03:12.095Z,2.16
2023-04-05T04:04:12.041Z,2.12
2023-04-05T04:05:12.061Z,2.16
2023-04-05T04:06:12.112Z,2.09
2023-04-05T04:07:12.023Z,2.16
2023-04-05T04:08:12.065Z,2.10
2023-04-05T04:09:11.987Z,2.03
2023-04-05T04:10:12.106Z,2.12
2023-04-05T04:11:11.969Z,2.05
2023-04-05T04:12:11.952Z,2.09
2023-04-05T04:13:11.942Z,2.07
2023-04-05T04:14:11.996Z,2.03
2023-04-05T04:15:11.937Z,2.10
2023-04-05T04:16:11.948Z,2.06
2023-04-05T04:17:11.907Z,2.09
2023-04-05T04:18:11.892Z,2.06
2023-04-05T04:19:11.900Z,2.12
2023-04-05T04:20:11.895Z,2.10
2023-04-05T04:21:11.873Z,2.12
2023-04-05T04:22:11.866Z,2.03
2023-04-05T04:23:11.848Z,2.02
2023-04-05T04:24:11.836Z,1.98
2023-04-05T04:25:11.834Z,2.03
2023-04-05T04:26:11.825Z,2.12
2023-04-05T04:27:11.805Z,2.16
2023-04-05T04:28:11.780Z,2.07
2023-04-05T04:29:11.792Z,2.06
2023-04-05T04:30:11.774Z,2.07
2023-04-05T04:31:11.747Z,2.09
2023-04-05T04:32:11.780Z,2.06
2023-04-05T04:33:11.755Z,2.06
2023-04-05T04:34:11.724Z,2.05
2023-04-05T04:35:11.788Z,2.00
2023-04-05T04:36:11.766Z,1.98
2023-04-05T04:37:11.698Z,2.03
2023-04-05T04:38:11.742Z,2.06
2023-04-05T04:39:11.686Z,2.10
2023-04-05T04:40:11.657Z,2.14
2023-04-05T04:41:11.659Z,2.07
2023-04-05T04:42:11.636Z,2.06
2023-04-05T04:43:11.636Z,2.10
2023-04-05T04:44:11.681Z,2.03
2023-04-05T04:45:11.605Z,2.06
2023-04-05T04:46:11.654Z,2.06
2023-04-05T04:47:13.082Z,1.95
2023-04-05T04:48:11.590Z,2.06
2023-04-05T04:49:11.569Z,1.98
2023-04-05T04:50:11.608Z,1.95
2023-04-05T04:51:11.532Z,1.98
2023-04-05T04:52:11.543Z,1.93
2023-04-05T04:53:11.547Z,1.93
2023-04-05T04:54:11.516Z,1.90
2023-04-05T04:55:11.499Z,2.00
2023-04-05T04:56:11.521Z,1.88
2023-04-05T04:57:11.488Z,1.95
2023-04-05T04:58:11.473Z,1.83
2023-04-05T04:59:11.474Z,1.83
2023-04-05T05:00:11.449Z,1.84
2023-04-05T05:01:11.448Z,1.90
2023-04-05T05:02:11.489Z,1.87
2023-04-05T05:03:11.557Z,1.87
2023-04-05T05:04:11.435Z,1.88
2023-04-05T05:05:11.455Z,1.86
2023-04-05T05:06:11.410Z,1.83
2023-04-05T05:07:11.369Z,1.81
2023-04-05T05:08:11.450Z,1.81
2023-04-05T05:09:11.411Z,1.79
2023-04-05T05:10:11.349Z,1.81
2023-04-05T05:11:11.331Z,1.81
2023-04-05T05:12:11.323Z,1.80
2023-04-05T05:13:11.324Z,1.83
2023-04-05T05:14:11.317Z,1.79
2023-04-05T05:15:11.327Z,1.84
2023-04-05T05:16:11.317Z,1.84
2023-04-05T05:17:11.273Z,1.80
2023-04-05T05:18:11.320Z,1.84
2023-04-05T05:19:11.239Z,1.77
2023-04-05T05:20:11.538Z,1.77
2023-04-05T05:21:11.249Z,1.79
2023-04-05T05:22:11.245Z,1.81
2023-04-05T05:23:11.207Z,1.84
2023-04-05T05:24:11.206Z,1.88
2023-04-05T05:25:11.192Z,1.90
2023-04-05T05:26:11.206Z,1.91
2023-04-05T05:27:11.217Z,1.98
2023-04-05T05:28:11.154Z,1.93
2023-04-05T05:29:11.144Z,2.03
2023-04-05T05:30:11.139Z,1.95
2023-04-05T05:31:11.242Z,2.03
2023-04-05T05:32:11.104Z,1.98
2023-04-05T05:33:11.189Z,2.10
2023-04-05T05:34:11.098Z,2.03
2023-04-05T05:35:11.084Z,2.12
2023-04-05T05:36:11.066Z,2.10
2023-04-05T05:37:11.124Z,2.09
2023-04-05T05:38:13.392Z,2.10
2023-04-05T05:39:11.171Z,2.20
2023-04-05T05:40:11.028Z,2.20
2023-04-05T05:41:11.035Z,2.28
2023-04-05T05:42:11.007Z,2.27
2023-04-05T05:43:10.999Z,2.25
2023-04-05T05:44:10.983Z,2.34
2023-04-05T05:45:11.030Z,2.25
2023-04-05T05:46:11.028Z,2.30
2023-04-05T05:47:10.980Z,2.45
2023-04-05T05:48:11.012Z,2.36
2023-04-05T05:49:10.918Z,2.39
2023-04-05T05:50:10.921Z,2.39
2023-04-05T05:51:10.952Z,2.39
2023-04-05T05:52:10.900Z,2.43
2023-04-05T05:53:10.891Z,2.45
2023-04-05T05:54:10.881Z,2.53
2023-04-05T05:55:10.872Z,2.52
2023-04-05T05:56:10.951Z,2.52
2023-04-05T05:57:10.904Z,2.54
2023-04-05T05:58:10.843Z,2.61
2023-04-05T05:59:10.926Z,2.60
2023-04-05T06:00:10.896Z,2.67
2023-04-05T06:01:10.805Z,2.67
2023-04-05T06:02:10.778Z,2.63
2023-04-05T06:03:10.919Z,2.64
2023-04-05T06:04:10.821Z,2.69
2023-04-05T06:05:10.748Z,2.71
2023-04-05T06:06:10.761Z,2.69
2023-04-05T06:07:10.734Z,2.71
2023-04-05T06:08:10.720Z,2.67
2023-04-05T06:09:10.734Z,2.78
2023-04-05T06:10:10.704Z,2.82
2023-04-05T06:11:10.692Z,2.81
2023-04-05T06:12:10.695Z,2.85
2023-04-05T06:13:10.731Z,2.79
2023-04-05T06:14:10.657Z,2.85
2023-04-05T06:15:10.695Z,2.84
2023-04-05T06:16:10.697Z,2.82
2023-04-05T06:17:10.658Z,2.96
2023-04-05T06:18:10.689Z,2.93
2023-04-05T06:19:10.607Z,3.03
2023-04-05T06:20:10.598Z,2.99
2023-04-05T06:21:10.957Z,3.11
2023-04-05T06:22:10.583Z,3.11
2023-04-05T06:23:10.559Z,3.06
2023-04-05T06:24:10.546Z,3.11
2023-04-05T06:25:10.549Z,3.24
2023-04-05T06:26:10.528Z,3.13
2023-04-05T06:27:10.543Z,3.29
2023-04-05T06:28:10.527Z,3.36
2023-04-05T06:29:10.528Z,3.35
2023-04-05T06:30:10.512Z,3.47
2023-04-05T06:31:11.624Z,3.57
2023-04-05T06:32:10.553Z,3.62
2023-04-05T06:33:10.493Z,3.76
2023-04-05T06:34:10.467Z,3.87
2023-04-05T06:35:10.444Z,3.94
2023-04-05T06:36:10.489Z,4.08
2023-04-05T06:37:10.399Z,4.02
2023-04-05T06:38:10.390Z,4.08
2023-04-05T06:39:10.402Z,4.16
2023-04-05T06:40:10.415Z,4.36
2023-04-05T06:41:10.372Z,4.29
2023-04-05T06:42:10.389Z,4.40
2023-04-05T06:43:10.364Z,4.48
2023-04-05T06:44:10.361Z,4.55
2023-04-05T06:45:10.344Z,4.66
2023-04-05T06:46:10.474Z,4.77
2023-04-05T06:47:10.311Z,4.88
2023-04-05T06:48:10.371Z,4.97
2023-04-05T06:49:10.269Z,5.12
2023-04-05T06:50:10.275Z,5.28
2023-04-05T06:51:10.286Z,5.17
2023-04-05T06:52:10.271Z,5.25
2023-04-05T06:53:10.229Z,5.22
2023-04-05T06:54:10.239Z,5.33
2023-04-05T06:55:10.220Z,5.42
2023-04-05T06:56:10.201Z,5.57
2023-04-05T06:57:10.220Z,5.58
2023-04-05T06:58:10.180Z,5.46
2023-04-05T06:59:10.242Z,5.57
2023-04-05T07:00:10.161Z,5.61
2023-04-05T07:01:10.235Z,5.82
2023-04-05T07:02:10.155Z,5.83
2023-04-05T07:03:10.228Z,6.01
2023-04-05T07:04:10.141Z,6.08
2023-04-05T07:05:10.102Z,6.09
2023-04-05T07:06:10.090Z,6.12
2023-04-05T07:07:10.096Z,6.12
2023-04-05T07:08:10.094Z,6.27
2023-04-05T07:09:10.125Z,6.41
2023-04-05T07:10:10.051Z,6.69
2023-04-05T07:11:10.153Z,6.81
2023-04-05T07:12:10.301Z,6.88
2023-04-05T07:13:10.024Z,6.76
2023-04-05T07:14:10.030Z,6.58
2023-04-05T07:15:10.026Z,6.58
2023-04-05T07:16:10.057Z,6.54
2023-04-05T07:17:10.024Z,6.62
2023-04-05T07:18:09.962Z,6.56
2023-04-05T07:19:09.976Z,6.73
2023-04-05T07:20:09.950Z,6.64
2023-04-05T07:21:09.978Z,6.76
2023-04-05T07:22:09.922Z,6.92
2023-04-05T07:23:09.903Z,7.06
2023-04-05T07:24:09.896Z,7.07
2023-04-05T07:25:09.884Z,7.03
2023-04-05T07:26:09.881Z,7.02
2023-04-05T07:27:09.933Z,7.07
2023-04-05T07:28:09.853Z,7.12
2023-04-05T07:29:09.837Z,7.09
2023-04-05T07:30:09.828Z,6.99
2023-04-05T07:31:09.830Z,7.07
2023-04-05T07:32:09.823Z,7.20
2023-04-05T07:33:09.881Z,7.17
2023-04-05T07:34:09.788Z,7.48
2023-04-05T07:35:09.785Z,7.80
2023-04-05T07:36:09.789Z,7.87
2023-04-05T07:37:09.764Z,8.08
2023-04-05T07:38:09.741Z,7.97
2023-04-05T07:39:09.754Z,8.07
2023-04-05T07:40:09.748Z,7.95
2023-04-05T07:41:09.711Z,8.05
2023-04-05T07:42:09.742Z,8.23
2023-04-05T07:43:09.684Z,8.28
2023-04-05T07:44:09.713Z,8.29
2023-04-05T07:45:09.699Z,8.44
2023-04-05T07:46:09.706Z,8.59
2023-04-05T07:47:09.639Z,8.58
2023-04-05T07:48:09.738Z,8.59
2023-04-05T07:49:09.668Z,8.66
2023-04-05T07:50:09.634Z,8.76
2023-04-05T07:51:09.683Z,8.94
2023-04-05T07:52:09.598Z,9.01
2023-04-05T07:53:09.584Z,9.28
2023-04-05T07:54:09.566Z,9.29
2023-04-05T07:55:09.589Z,9.32
2023-04-05T07:56:09.544Z,9.46
2023-04-05T07:57:09.600Z,9.20
2023-04-05T07:58:09.543Z,9.08
2023-04-05T07:59:09.568Z,8.94
2023-04-05T08:00:09.507Z,9.04
2023-04-05T08:01:09.520Z,9.23
2023-04-05T08:02:14.461Z,9.39
2023-04-05T08:03:10.600Z,9.56
2023-04-05T08:04:09.534Z,9.58
2023-04-05T08:05:09.567Z,9.51
2023-04-05T08:06:09.449Z,9.46
2023-04-05T08:07:09.451Z,9.51
2023-04-05T08:08:09.412Z,9.65
2023-04-05T08:09:09.420Z,9.69
2023-04-05T08:10:09.391Z,9.75
2023-04-05T08:11:09.389Z,9.78
2023-04-05T08:12:09.391Z,9.90
2023-04-05T08:13:09.381Z,9.94
2023-04-05T08:14:09.368Z,9.99
2023-04-05T08:15:09.351Z,9.97
2023-04-05T08:16:09.348Z,9.97
2023-04-05T08:17:09.330Z,10.08
2023-04-05T08:18:09.355Z,10.04
2023-04-05T08:19:09.368Z,9.69
2023-04-05T08:20:09.354Z,9.72
2023-04-05T08:21:09.313Z,9.72
2023-04-05T08:22:09.301Z,9.78
2023-04-05T08:23:09.278Z,9.54
2023-04-05T08:24:09.246Z,9.50
2023-04-05T08:25:09.224Z,9.64
2023-04-05T08:26:09.265Z,9.83
2023-04-05T08:27:09.208Z,9.96
2023-04-05T08:28:09.207Z,10.14
2023-04-05T08:29:09.207Z,10.40
2023-04-05T08:30:09.195Z,10.33
2023-04-05T08:31:09.711Z,10.22
2023-04-05T08:32:09.279Z,10.20
2023-04-05T08:33:09.180Z,10.14
2023-04-05T08:34:09.125Z,9.96
2023-04-05T08:35:09.135Z,9.96
2023-04-05T08:36:09.122Z,10.07
2023-04-05T08:37:09.112Z,9.99
2023-04-05T08:38:09.109Z,10.02
2023-04-05T08:39:09.071Z,10.25
2023-04-05T08:40:09.077Z,10.51
2023-04-05T08:41:09.063Z,10.59
2023-04-05T08:42:09.037Z,10.82
2023-04-05T08:43:09.032Z,10.88
2023-04-05T08:44:09.050Z,11.06
2023-04-05T08:45:09.045Z,11.24
2023-04-05T08:46:09.023Z,11.39
2023-04-05T08:47:08.987Z,11.57
2023-04-05T08:48:08.985Z,11.49
2023-04-05T08:49:09.028Z,11.76
2023-04-05T08:50:09.101Z,11.83
2023-04-05T08:51:08.945Z,11.99
2023-04-05T08:52:08.936Z,11.99
2023-04-05T08:53:08.942Z,11.88
2023-04-05T08:54:08.916Z,11.36
2023-04-05T08:55:08.942Z,11.28
2023-04-05T08:56:09.008Z,11.49
2023-04-05T08:57:08.882Z,11.62
2023-04-05T08:58:08.868Z,11.70
2023-04-05T08:59:08.892Z,11.91
2023-04-05T09:00:08.869Z,12.14
2023-04-05T09:01:08.855Z,12.12
2023-04-05T09:02:08.927Z,12.14
2023-04-05T09:03:08.934Z,12.13
2023-04-05T09:04:08.811Z,12.27
2023-04-05T09:05:08.800Z,12.28
2023-04-05T09:06:08.787Z,12.14
2023-04-05T09:07:08.790Z,12.14
2023-04-05T09:08:08.796Z,12.20
2023-04-05T09:09:08.786Z,12.01
2023-04-05T09:10:08.767Z,12.01
2023-04-05T09:11:08.745Z,11.86
2023-04-05T09:12:08.730Z,12.02
2023-04-05T09:13:09.251Z,12.14
2023-04-05T09:14:08.735Z,12.17
2023-04-05T09:15:08.693Z,12.09
2023-04-05T09:16:08.697Z,11.79
2023-04-05T09:17:08.809Z,11.79
2023-04-05T09:18:19.017Z,11.91
2023-04-05T09:19:09.641Z,12.05
2023-04-05T09:20:08.677Z,12.20
2023-04-05T09:21:08.641Z,12.28
2023-04-05T09:22:08.612Z,12.41
2023-04-05T09:23:08.623Z,12.37
2023-04-05T09:24:08.599Z,12.17
2023-04-05T09:25:08.591Z,11.99
2023-04-05T09:26:08.598Z,12.09
2023-04-05T09:27:08.581Z,12.07
2023-04-05T09:28:08.549Z,12.13
2023-04-05T09:29:08.564Z,11.94
2023-04-05T09:30:08.514Z,11.83
2023-04-05T09:31:08.567Z,11.70
2023-04-05T09:32:08.525Z,11.67
2023-04-05T09:33:08.612Z,11.88
2023-04-05T09:34:08.483Z,12.19
2023-04-05T09:35:08.478Z,12.37
2023-04-05T09:36:08.496Z,12.39
2023-04-05T09:37:08.442Z,12.27
2023-04-05T09:38:08.451Z,11.80
2023-04-05T09:39:08.470Z,11.78
2023-04-05T09:40:08.419Z,11.98
2023-04-05T09:41:08.439Z,12.19
2023-04-05T09:42:08.398Z,12.19
2023-04-05T09:43:08.383Z,12.16
2023-04-05T09:44:08.391Z,12.28
2023-04-05T09:45:08.365Z,12.38
2023-04-05T09:46:08.416Z,12.49
2023-04-05T09:47:08.356Z,12.65
2023-04-05T09:48:08.458Z,12.85
2023-04-05T09:49:08.321Z,12.93
2023-04-05T09:50:08.320Z,12.95
2023-04-05T09:52:08.306Z,13.08
2023-04-05T09:53:08.270Z,13.04
2023-04-05T09:54:08.277Z,13.22
2023-04-05T09:55:08.247Z,13.17
2023-04-05T09:56:08.275Z,13.14
2023-04-05T09:57:08.246Z,13.28
2023-04-05T09:58:08.223Z,13.41
2023-04-05T09:59:08.239Z,13.55
2023-04-05T10:00:08.216Z,13.33
2023-04-05T10:01:16.890Z,13.25
2023-04-05T10:02:09.249Z,13.14
2023-04-05T10:03:08.276Z,13.11
2023-04-05T10:04:08.287Z,13.30
2023-04-05T10:05:08.136Z,13.26
2023-04-05T10:06:08.151Z,13.15
2023-04-05T10:07:08.161Z,13.23
2023-04-05T10:08:08.133Z,13.25
2023-04-05T10:09:08.098Z,13.30
2023-04-05T10:10:08.085Z,13.39
2023-04-05T10:11:08.117Z,13.45
2023-04-05T10:12:08.053Z,13.49
2023-04-05T10:13:08.068Z,13.52
2023-04-05T10:14:08.077Z,13.55
2023-04-05T10:15:08.035Z,13.59
2023-04-05T10:16:08.038Z,13.63
2023-04-05T10:17:08.027Z,13.52
2023-04-05T10:18:08.032Z,13.39
2023-04-05T10:19:09.028Z,13.38
2023-04-05T10:20:08.029Z,12.93
2023-04-05T10:21:07.978Z,12.82
2023-04-05T10:22:07.974Z,12.89
2023-04-05T10:23:08.028Z,12.78
2023-04-05T10:24:07.929Z,12.65
2023-04-05T10:25:07.938Z,12.82
2023-04-05T10:26:07.945Z,12.89
2023-04-05T10:27:07.903Z,13.08
2023-04-05T10:28:07.903Z,13.26
2023-04-05T10:29:07.939Z,13.20
2023-04-05T10:30:07.854Z,13.26
2023-04-05T10:31:07.843Z,13.26
2023-04-05T10:32:08.056Z,12.92
2023-04-05T10:33:07.917Z,12.93
2023-04-05T10:34:07.972Z,12.79
2023-04-05T10:35:07.851Z,12.82
2023-04-05T10:36:07.884Z,12.96
2023-04-05T10:37:07.789Z,12.96
2023-04-05T10:38:07.762Z,13.10
2023-04-05T10:39:07.804Z,13.10
2023-04-05T10:40:07.793Z,13.05
2023-04-05T10:41:07.780Z,13.29
2023-04-05T10:42:07.773Z,13.32
2023-04-05T10:43:07.717Z,13.57
2023-04-05T10:44:18.888Z,13.64
2023-04-05T10:45:08.725Z,13.63
2023-04-05T10:46:07.814Z,13.70
2023-04-05T10:47:07.680Z,13.33
2023-04-05T10:48:07.755Z,13.28
2023-04-05T10:49:07.738Z,13.25
2023-04-05T10:50:07.755Z,13.28
2023-04-05T10:51:07.634Z,13.29
2023-04-05T10:52:07.659Z,13.54
2023-04-05T10:53:07.652Z,13.52
2023-04-05T10:54:07.620Z,13.60
2023-04-05T10:55:07.713Z,13.77
2023-04-05T10:56:07.581Z,13.75
2023-04-05T10:57:09.395Z,13.63
2023-04-05T10:58:07.765Z,13.52
2023-04-05T10:59:07.578Z,13.48
2023-04-05T11:00:07.623Z,13.32
2023-04-05T11:01:07.641Z,13.38
2023-04-05T11:02:07.524Z,13.48
2023-04-05T11:03:07.541Z,13.42
2023-04-05T11:04:07.533Z,13.45
2023-04-05T11:05:07.539Z,13.46
2023-04-05T11:06:07.479Z,13.57
2023-04-05T11:07:07.489Z,13.48
2023-04-05T11:08:07.477Z,13.54
2023-04-05T11:09:07.469Z,13.57
2023-04-05T11:10:07.446Z,13.66
2023-04-05T11:11:07.462Z,13.87
2023-04-05T11:12:07.457Z,13.79
2023-04-05T11:13:07.414Z,13.99
2023-04-05T11:14:07.403Z,13.84
2023-04-05T11:15:07.390Z,13.81
2023-04-05T11:16:07.374Z,13.64
2023-04-05T11:17:07.444Z,13.62
2023-04-05T11:18:07.415Z,13.62
2023-04-05T11:19:07.344Z,13.55
2023-04-05T11:20:07.322Z,13.39
2023-04-05T11:21:07.322Z,13.28
2023-04-05T11:22:07.298Z,13.44
2023-04-05T11:23:07.319Z,13.42
2023-04-05T11:24:07.340Z,13.45
2023-04-05T11:25:07.295Z,13.57
2023-04-05T11:26:07.285Z,13.63
2023-04-05T11:27:07.242Z,13.70
2023-04-05T11:28:07.235Z,13.64
2023-04-05T11:29:07.274Z,13.54
2023-04-05T11:30:07.220Z,13.60
2023-04-05T11:31:07.335Z,13.66
2023-04-05T11:32:07.205Z,13.49
2023-04-05T11:33:07.285Z,13.45
2023-04-05T11:34:07.180Z,13.26
2023-04-05T11:35:07.180Z,13.30
2023-04-05T11:36:07.215Z,13.36
2023-04-05T11:37:07.131Z,13.42
2023-04-05T11:38:07.122Z,13.46
2023-04-05T11:39:07.138Z,13.60
2023-04-05T11:40:07.093Z,13.75
2023-04-05T11:41:07.081Z,13.87
2023-04-05T11:42:07.094Z,13.92
2023-04-05T11:43:07.090Z,13.81
2023-04-05T11:44:07.046Z,13.95
2023-04-05T11:45:07.040Z,13.91
2023-04-05T11:46:07.025Z,13.88
2023-04-05T11:47:07.025Z,13.77
2023-04-05T11:48:07.105Z,13.66
2023-04-05T11:49:07.012Z,13.77
2023-04-05T11:50:06.984Z,13.96
2023-04-05T11:51:07.006Z,14.07
2023-04-05T11:52:06.957Z,14.09
2023-04-05T11:53:06.954Z,14.15
2023-04-05T11:54:06.980Z,14.14
2023-04-05T11:55:06.924Z,14.12
2023-04-05T11:56:06.952Z,14.14
2023-04-05T11:57:06.896Z,13.95
2023-04-05T11:58:06.891Z,13.71
2023-04-05T11:59:06.936Z,13.91
2023-04-05T12:00:06.881Z,13.99
2023-04-05T12:01:06.883Z,13.88
2023-04-05T12:02:06.886Z,13.88
2023-04-05T12:03:06.908Z,13.70
2023-04-05T12:04:06.842Z,13.78
2023-04-05T12:05:06.885Z,13.55
2023-04-05T12:06:06.823Z,13.36
2023-04-05T12:07:06.810Z,13.51
2023-04-05T12:08:06.795Z,13.44
2023-04-05T12:09:06.756Z,13.51
2023-04-05T12:10:06.755Z,13.59
2023-04-05T12:11:06.743Z,13.45
2023-04-05T12:12:06.762Z,13.45
2023-04-05T12:13:06.749Z,13.41
2023-04-05T12:14:06.704Z,13.25
2023-04-05T12:15:06.709Z,13.22
2023-04-05T12:16:06.704Z,13.30
2023-04-05T12:17:06.672Z,13.22
2023-04-05T12:18:06.708Z,13.04
2023-04-05T12:19:06.641Z,13.19
2023-04-05T12:20:06.661Z,13.23
2023-04-05T12:21:07.869Z,13.15
2023-04-05T12:22:06.619Z,13.03
2023-04-05T12:23:06.616Z,12.97
2023-04-05T12:24:06.622Z,12.87
2023-04-05T12:25:06.610Z,12.90
2023-04-05T12:26:06.596Z,13.04
2023-04-05T12:27:06.568Z,13.00
2023-04-05T12:28:06.552Z,13.07
2023-04-05T12:29:06.557Z,13.04
2023-04-05T12:30:06.624Z,13.20
2023-04-05T12:31:06.512Z,13.19
2023-04-05T12:32:06.573Z,13.05
2023-04-05T12:33:06.589Z,13.05
2023-04-05T12:34:06.478Z,12.82
2023-04-05T12:35:06.471Z,12.89
2023-04-05T12:36:06.552Z,12.85
2023-04-05T12:37:06.491Z,12.92
2023-04-05T12:38:06.479Z,12.96
2023-04-05T12:39:06.461Z,13.04
2023-04-05T12:40:06.440Z,13.07
2023-04-05T12:41:06.410Z,13.08
2023-04-05T12:42:06.424Z,13.17
2023-04-05T12:43:06.385Z,13.20
2023-04-05T12:44:06.374Z,13.05
2023-04-05T12:45:06.386Z,12.93
2023-04-05T12:46:06.434Z,13.00
2023-04-05T12:47:06.355Z,12.92
2023-04-05T12:48:06.360Z,13.12
2023-04-05T12:49:06.341Z,13.11
2023-04-05T12:50:06.324Z,13.15
2023-04-05T12:51:06.323Z,13.20
2023-04-05T12:52:06.295Z,13.15
2023-04-05T12:53:06.299Z,13.19
2023-04-05T12:54:06.300Z,13.29
2023-04-05T12:55:06.262Z,13.08
2023-04-05T12:56:06.531Z,13.03
2023-04-05T12:57:06.244Z,13.01
2023-04-05T12:58:06.240Z,13.05
2023-04-05T12:59:06.437Z,13.00
2023-04-05T13:00:06.216Z,12.95
2023-04-05T13:01:06.274Z,12.92
2023-04-05T13:02:06.246Z,12.92
2023-04-05T13:03:06.267Z,12.89
2023-04-05T13:04:15.332Z,12.82
2023-04-05T13:05:07.190Z,12.72
2023-04-05T13:06:06.136Z,12.57
2023-04-05T13:07:06.156Z,12.50
2023-04-05T13:08:06.125Z,12.56
2023-04-05T13:09:06.117Z,12.65
2023-04-05T13:10:06.139Z,12.72